createdAt,value
2019-02-03T00:02:25.870Z,37.27
2019-02-03T00:04:57.807Z,37.20
2019-02-03T00:07:28.044Z,36.17
2019-02-03T00:10:31.419Z,37.03
2019-02-03T00:13:06.004Z,37.17
2019-02-03T00:15:58.710Z,39.17
2019-02-03T00:18:37.154Z,38.60
2019-02-03T00:21:13.676Z,37.53
2019-02-03T00:23:55.232Z,39.23
2019-02-03T00:26:49.584Z,38.90
2019-02-03T00:29:20.192Z,37.77
2019-02-03T00:31:59.333Z,39.10
2019-02-03T00:34:31.086Z,40.20
2019-02-03T00:37:15.313Z,40.17
2019-02-03T00:39:43.650Z,38.87
2019-02-03T00:42:20.197Z,40.97
2019-02-03T00:44:55.198Z,42.10
2019-02-03T00:47:25.873Z,41.40
2019-02-03T00:49:56.711Z,44.00
2019-02-03T00:52:27.636Z,39.60
2019-02-03T00:54:58.477Z,39.57
2019-02-03T00:57:28.982Z,39.20
2019-02-03T00:59:59.657Z,39.53
2019-02-03T01:02:31.503Z,44.30
2019-02-03T01:05:01.833Z,39.60
2019-02-03T01:07:32.687Z,39.93
2019-02-03T01:10:10.215Z,39.80
2019-02-03T01:12:42.635Z,39.07
2019-02-03T01:15:13.282Z,38.57
2019-02-03T01:17:44.880Z,39.70
2019-02-03T01:20:16.868Z,39.70
2019-02-03T01:22:47.854Z,39.23
2019-02-03T01:25:19.054Z,40.73
2019-02-03T01:27:49.589Z,43.47
2019-02-03T01:30:21.863Z,38.33
2019-02-03T01:32:52.805Z,37.00
2019-02-03T01:35:23.505Z,37.70
2019-02-03T01:37:53.837Z,38.40
2019-02-03T01:40:24.662Z,40.90
2019-02-03T01:42:57.838Z,36.63
2019-02-03T01:45:32.652Z,38.20
2019-02-03T01:48:03.435Z,35.97
2019-02-03T01:50:35.325Z,37.20
2019-02-03T01:53:06.123Z,36.83
2019-02-03T01:55:37.059Z,39.63
2019-02-03T01:58:08.810Z,37.10
2019-02-03T02:00:41.188Z,39.20
2019-02-03T02:03:14.420Z,44.33
2019-02-03T02:05:44.767Z,38.67
2019-02-03T02:08:15.274Z,41.57
2019-02-03T02:10:45.979Z,42.07
2019-02-03T02:13:18.107Z,38.17
2019-02-03T02:15:48.661Z,47.37
2019-02-03T02:18:18.745Z,36.47
2019-02-03T02:20:49.186Z,35.00
2019-02-03T02:23:19.786Z,36.10
2019-02-03T02:25:51.933Z,35.00
2019-02-03T02:28:22.263Z,36.77
2019-02-03T02:30:52.503Z,36.10
2019-02-03T02:33:22.682Z,35.80
2019-02-03T02:35:54.032Z,34.27
2019-02-03T02:38:26.451Z,37.00
2019-02-03T02:40:57.414Z,43.33
2019-02-03T02:43:27.761Z,38.73
2019-02-03T02:45:58.443Z,39.83
2019-02-03T02:48:28.593Z,35.93
2019-02-03T02:50:59.138Z,38.77
2019-02-03T02:53:29.268Z,40.70
2019-02-03T02:55:59.480Z,36.60
2019-02-03T02:58:29.686Z,36.83
2019-02-03T03:00:59.557Z,33.23
2019-02-03T03:03:29.540Z,35.03
2019-02-03T03:05:59.502Z,34.37
2019-02-03T03:08:29.723Z,36.07
2019-02-03T03:10:59.548Z,36.63
2019-02-03T03:13:29.619Z,38.03
2019-02-03T03:15:59.465Z,34.37
2019-02-03T03:18:29.495Z,33.90
2019-02-03T03:20:59.851Z,32.00
2019-02-03T03:23:30.187Z,29.13
2019-02-03T03:26:00.910Z,31.00
2019-02-03T03:28:31.036Z,30.80
2019-02-03T03:31:01.213Z,29.43
2019-02-03T03:33:31.409Z,29.30
2019-02-03T03:36:01.532Z,29.27
2019-02-03T03:38:32.549Z,30.40
2019-02-03T03:41:03.356Z,31.00
2019-02-03T03:43:33.646Z,32.75
2019-02-03T03:46:06.443Z,32.40
2019-02-03T03:48:35.859Z,32.03
2019-02-03T03:51:06.701Z,30.33
2019-02-03T03:53:37.733Z,30.80
2019-02-03T03:56:08.288Z,31.90
2019-02-03T03:58:38.427Z,33.50
2019-02-03T04:01:08.556Z,31.30
2019-02-03T04:03:38.563Z,32.60
2019-02-03T04:06:09.167Z,32.93
2019-02-03T04:08:45.424Z,32.43
2019-02-03T04:11:11.790Z,33.63
2019-02-03T04:13:41.954Z,31.10
2019-02-03T04:16:13.889Z,33.00
2019-02-03T04:18:48.932Z,32.58
2019-02-03T04:21:21.060Z,31.37
2019-02-03T04:23:53.106Z,30.50
2019-02-03T04:26:27.165Z,32.80
2019-02-03T04:28:57.915Z,30.33
2019-02-03T04:31:28.744Z,28.90
2019-02-03T04:34:00.310Z,29.52
2019-02-03T04:36:31.151Z,30.10
2019-02-03T04:39:02.229Z,28.77
2019-02-03T04:41:32.831Z,29.70
2019-02-03T04:44:03.713Z,30.60
2019-02-03T04:46:34.944Z,28.05
2019-02-03T04:49:05.905Z,29.17
2019-02-03T04:51:37.594Z,28.33
2019-02-03T04:54:11.264Z,27.80
2019-02-03T04:56:42.148Z,29.50
2019-02-03T04:59:16.398Z,27.93
2019-02-03T05:01:47.013Z,26.70
2019-02-03T05:04:17.364Z,27.37
2019-02-03T05:06:48.284Z,28.07
2019-02-03T05:09:18.444Z,26.00
2019-02-03T05:11:48.594Z,27.43
2019-02-03T05:14:19.042Z,27.57
2019-02-03T05:16:49.104Z,27.00
2019-02-03T05:19:19.507Z,26.70
2019-02-03T05:21:50.321Z,26.23
2019-02-03T05:24:20.610Z,26.60
2019-02-03T05:26:50.761Z,26.50
2019-02-03T05:29:21.252Z,24.50
2019-02-03T05:31:51.401Z,25.63
2019-02-03T05:34:21.631Z,26.53
2019-02-03T05:36:52.309Z,29.07
2019-02-03T05:39:25.322Z,26.87
2019-02-03T05:41:54.428Z,26.87
2019-02-03T05:44:25.066Z,28.73
2019-02-03T05:46:56.715Z,27.93
2019-02-03T05:49:27.140Z,27.77
2019-02-03T05:51:59.926Z,27.80
2019-02-03T05:54:29.986Z,29.07
2019-02-03T05:57:01.182Z,28.80
2019-02-03T05:59:31.125Z,26.77
2019-02-03T06:02:01.740Z,29.20
2019-02-03T06:04:32.530Z,27.37
2019-02-03T06:07:02.885Z,28.62
2019-02-03T06:09:36.692Z,28.70
2019-02-03T06:12:05.807Z,29.27
2019-02-03T06:14:36.099Z,27.23
2019-02-03T06:17:06.910Z,26.20
2019-02-03T06:19:37.091Z,28.00
2019-02-03T06:22:07.686Z,26.90
2019-02-03T06:24:38.939Z,26.15
2019-02-03T06:27:09.320Z,26.50
2019-02-03T06:29:39.580Z,26.50
2019-02-03T06:32:09.885Z,27.10
2019-02-03T06:34:40.990Z,28.27
2019-02-03T06:37:11.738Z,27.90
2019-02-03T06:39:48.605Z,27.93
2019-02-03T06:42:14.932Z,29.20
2019-02-03T06:44:49.206Z,29.70
2019-02-03T06:47:25.774Z,28.57
2019-02-03T06:49:56.348Z,31.00
2019-02-03T06:52:26.686Z,31.02
2019-02-03T06:54:58.679Z,32.10
2019-02-03T06:57:29.304Z,32.08
2019-02-03T06:59:59.828Z,31.27
2019-02-03T07:02:30.305Z,30.62
2019-02-03T07:05:00.419Z,30.45
2019-02-03T07:07:30.496Z,31.10
2019-02-03T07:10:01.134Z,31.80
2019-02-03T07:12:32.235Z,31.43
2019-02-03T07:15:02.596Z,27.87
2019-02-03T07:17:34.069Z,31.03
2019-02-03T07:20:08.013Z,29.57
2019-02-03T07:22:38.537Z,30.80
2019-02-03T07:25:09.410Z,31.80
2019-02-03T07:27:39.704Z,28.83
2019-02-03T07:30:14.175Z,29.43
2019-02-03T07:32:44.792Z,29.10
2019-02-03T07:35:15.711Z,29.57
2019-02-03T07:37:46.310Z,28.65
2019-02-03T07:40:16.516Z,29.17
2019-02-03T07:42:47.209Z,29.97
2019-02-03T07:45:17.580Z,28.30
2019-02-03T07:47:48.434Z,28.73
2019-02-03T07:50:19.616Z,27.50
2019-02-03T07:52:52.466Z,28.05
2019-02-03T07:55:22.774Z,30.50
2019-02-03T07:57:53.523Z,28.45
2019-02-03T08:00:26.034Z,27.95
2019-02-03T08:02:57.083Z,30.63
2019-02-03T08:05:27.128Z,30.00
2019-02-03T08:07:57.579Z,30.30
2019-02-03T08:10:29.770Z,28.30
2019-02-03T08:12:59.904Z,27.80
2019-02-03T08:15:30.495Z,27.93
2019-02-03T08:18:01.071Z,31.33
2019-02-03T08:20:32.659Z,28.63
2019-02-03T08:23:06.829Z,28.10
2019-02-03T08:25:37.007Z,28.10
2019-02-03T08:28:07.352Z,27.90
2019-02-03T08:30:39.454Z,29.10
2019-02-03T08:33:10.380Z,28.63
2019-02-03T08:35:41.999Z,27.13
2019-02-03T08:38:13.005Z,25.95
2019-02-03T08:40:48.914Z,24.90
2019-02-03T08:43:20.806Z,24.70
2019-02-03T08:45:52.299Z,24.37
2019-02-03T08:48:23.469Z,24.43
2019-02-03T08:50:56.360Z,24.60
2019-02-03T08:53:27.666Z,22.10
2019-02-03T08:56:08.006Z,21.80
2019-02-03T08:58:40.739Z,21.33
2019-02-03T09:01:35.200Z,21.30
2019-02-03T09:04:10.339Z,19.37
2019-02-03T09:06:49.629Z,18.87
2019-02-03T09:09:22.757Z,17.10
2019-02-03T09:12:15.778Z,17.20
2019-02-03T09:14:52.898Z,16.27
2019-02-03T09:18:31.618Z,15.03
2019-02-03T09:20:48.440Z,13.80
2019-02-03T09:23:21.375Z,13.70
2019-02-03T09:25:58.552Z,14.57
2019-02-03T09:28:29.825Z,13.90
2019-02-03T09:31:04.053Z,12.93
2019-02-03T09:33:35.301Z,12.70
2019-02-03T09:36:10.493Z,11.70
2019-02-03T09:38:46.029Z,12.80
2019-02-03T09:41:17.011Z,15.50
2019-02-03T09:43:48.512Z,15.50
2019-02-03T09:46:22.741Z,16.80
2019-02-03T09:48:54.475Z,17.27
2019-02-03T09:51:29.890Z,16.83
2019-02-03T09:54:01.084Z,15.97
2019-02-03T09:56:33.909Z,16.73
2019-02-03T09:59:05.073Z,19.13
2019-02-03T10:01:41.133Z,18.70
2019-02-03T10:04:14.731Z,19.43
2019-02-03T10:06:46.496Z,18.93
2019-02-03T10:09:18.213Z,19.33
2019-02-03T10:11:49.429Z,21.13
2019-02-03T10:14:20.230Z,20.70
2019-02-03T10:16:52.181Z,21.63
2019-02-03T10:19:22.972Z,20.63
2019-02-03T10:21:57.066Z,21.57
2019-02-03T10:24:41.688Z,21.43
2019-02-03T10:27:09.472Z,22.77
2019-02-03T10:29:46.751Z,22.40
2019-02-03T10:32:19.846Z,20.60
2019-02-03T10:34:52.596Z,20.93
2019-02-03T10:37:23.935Z,22.37
2019-02-03T10:40:12.789Z,21.10
2019-02-03T10:42:47.693Z,22.17
2019-02-03T10:45:47.116Z,21.33
2019-02-03T10:48:24.658Z,20.20
2019-02-03T10:51:16.077Z,21.30
2019-02-03T10:53:57.553Z,21.10
2019-02-03T10:56:32.145Z,22.07
2019-02-03T10:59:07.857Z,19.93
2019-02-03T11:01:45.076Z,20.23
2019-02-03T11:04:23.755Z,19.00
2019-02-03T11:06:57.231Z,19.13
2019-02-03T11:09:30.410Z,21.00
2019-02-03T11:12:02.158Z,17.67
2019-02-03T11:14:43.416Z,19.60
2019-02-03T11:17:17.497Z,21.03
2019-02-03T11:19:52.788Z,19.00
2019-02-03T11:22:51.127Z,18.07
2019-02-03T11:25:27.851Z,18.93
2019-02-03T11:28:01.687Z,16.97
2019-02-03T11:30:32.889Z,17.37
2019-02-03T11:33:08.750Z,17.90
2019-02-03T11:35:41.840Z,16.80
2019-02-03T11:38:16.929Z,16.53
2019-02-03T11:40:50.631Z,17.40
2019-02-03T11:43:23.954Z,17.73
2019-02-03T11:45:55.780Z,16.53
2019-02-03T11:48:29.249Z,16.97
2019-02-03T11:51:05.258Z,18.30
2019-02-03T11:53:49.736Z,18.13
2019-02-03T11:56:22.393Z,17.50
2019-02-03T11:59:01.743Z,18.80
2019-02-03T12:01:38.588Z,16.90
2019-02-03T12:04:20.852Z,16.70
2019-02-03T12:06:53.432Z,17.97
2019-02-03T12:09:29.943Z,16.63
2019-02-03T12:12:09.159Z,18.53
2019-02-03T12:14:42.914Z,17.90
2019-02-03T12:17:33.799Z,16.70
2019-02-03T12:20:15.763Z,16.70
2019-02-03T12:22:53.311Z,16.07
2019-02-03T12:25:43.245Z,18.23
2019-02-03T12:28:18.093Z,15.10
2019-02-03T12:30:51.750Z,16.57
2019-02-03T12:33:23.466Z,15.80
2019-02-03T12:36:06.539Z,18.10
2019-02-03T12:38:40.946Z,14.83
2019-02-03T12:41:15.371Z,14.70
2019-02-03T12:44:04.784Z,14.77
2019-02-03T12:46:38.844Z,13.80
2019-02-03T12:49:15.819Z,14.00
2019-02-03T12:51:47.030Z,14.20
2019-02-03T12:54:20.620Z,14.80
2019-02-03T12:56:51.484Z,14.03
2019-02-03T12:59:26.080Z,13.40
2019-02-03T13:01:56.561Z,12.70
2019-02-03T13:04:28.857Z,12.20
2019-02-03T13:07:01.132Z,15.00
2019-02-03T13:09:39.124Z,11.73
2019-02-03T13:12:24.704Z,12.17
2019-02-03T13:14:47.651Z,11.47
2019-02-03T13:17:20.421Z,13.00
2019-02-03T13:19:52.461Z,12.80
2019-02-03T13:22:24.058Z,14.10
2019-02-03T13:24:55.123Z,11.13
2019-02-03T13:27:26.588Z,10.87
2019-02-03T13:30:01.183Z,12.43
2019-02-03T13:32:37.487Z,11.90
2019-02-03T13:35:12.388Z,10.90
2019-02-03T13:37:47.973Z,10.90
2019-02-03T13:40:20.740Z,9.47
2019-02-03T13:42:55.180Z,10.13
2019-02-03T13:45:27.543Z,10.10
2019-02-03T13:48:00.944Z,9.13
2019-02-03T13:50:31.781Z,9.27
2019-02-03T13:53:05.966Z,9.00
2019-02-03T13:55:39.269Z,9.17
2019-02-03T13:58:19.630Z,9.60
2019-02-03T14:00:51.625Z,9.50
2019-02-03T14:03:29.927Z,9.00
2019-02-03T14:06:04.639Z,8.13
2019-02-03T14:08:35.845Z,9.30
2019-02-03T14:11:07.276Z,10.13
2019-02-03T14:13:39.938Z,9.30
2019-02-03T14:16:11.405Z,9.20
2019-02-03T14:18:43.584Z,10.03
2019-02-03T14:21:16.591Z,9.13
2019-02-03T14:23:49.456Z,9.47
2019-02-03T14:26:20.457Z,9.67
2019-02-03T14:28:54.234Z,9.60
2019-02-03T14:31:26.996Z,8.83
2019-02-03T14:33:58.317Z,11.20
2019-02-03T14:36:31.112Z,12.77
2019-02-03T14:39:04.338Z,11.27
2019-02-03T14:41:36.384Z,9.73
2019-02-03T14:44:09.553Z,9.30
2019-02-03T14:46:41.904Z,10.53
2019-02-03T14:49:15.489Z,10.23
2019-02-03T14:51:47.070Z,10.00
2019-02-03T14:54:29.529Z,10.67
2019-02-03T14:57:01.280Z,9.20
2019-02-03T14:59:32.775Z,10.53
2019-02-03T15:02:06.584Z,9.87
2019-02-03T15:04:37.684Z,8.90
2019-02-03T15:07:09.882Z,10.10
2019-02-03T15:09:40.875Z,8.90
2019-02-03T15:12:12.558Z,8.97
2019-02-03T15:14:42.684Z,8.70
2019-02-03T15:17:16.297Z,8.57
2019-02-03T15:19:47.005Z,9.47
2019-02-03T15:22:18.141Z,8.30
2019-02-03T15:24:51.586Z,8.67
2019-02-03T15:27:25.429Z,8.57
2019-02-03T15:29:56.592Z,10.10
2019-02-03T15:32:27.622Z,8.97
2019-02-03T15:34:58.518Z,8.10
2019-02-03T15:37:31.758Z,9.00
2019-02-03T15:40:03.371Z,8.60
2019-02-03T15:42:34.039Z,8.37
2019-02-03T15:45:06.059Z,8.37
2019-02-03T15:47:38.821Z,9.17
2019-02-03T15:50:20.311Z,8.23
2019-02-03T15:52:52.454Z,8.50
2019-02-03T15:55:31.344Z,7.90
2019-02-03T15:58:03.507Z,9.30
2019-02-03T16:00:41.207Z,8.30
2019-02-03T16:03:13.586Z,8.03
2019-02-03T16:05:47.340Z,8.50
2019-02-03T16:08:21.647Z,8.13
2019-02-03T16:11:02.485Z,7.67
2019-02-03T16:13:37.303Z,6.93
2019-02-03T16:16:12.042Z,7.40
2019-02-03T16:18:49.271Z,7.87
2019-02-03T16:21:21.580Z,8.00
2019-02-03T16:23:52.882Z,7.80
2019-02-03T16:26:26.175Z,8.30
2019-02-03T16:28:57.074Z,8.20
2019-02-03T16:31:35.627Z,8.33
2019-02-03T16:34:11.142Z,8.50
2019-02-03T16:36:45.375Z,8.30
2019-02-03T16:39:20.204Z,9.37
2019-02-03T16:41:54.323Z,8.50
2019-02-03T16:44:26.456Z,8.60
2019-02-03T16:46:56.977Z,8.27
2019-02-03T16:49:28.462Z,8.47
2019-02-03T16:52:05.697Z,9.10
2019-02-03T16:54:37.822Z,8.38
2019-02-03T16:57:08.620Z,9.00
2019-02-03T16:59:40.738Z,9.35
2019-02-03T17:02:14.817Z,7.37
2019-02-03T17:04:46.937Z,7.90
2019-02-03T17:07:17.815Z,7.60
2019-02-03T17:09:48.322Z,7.90
2019-02-03T17:12:19.346Z,7.00
2019-02-03T17:14:50.549Z,7.45
2019-02-03T17:17:22.568Z,8.68
2019-02-03T17:19:53.021Z,8.48
2019-02-03T17:22:23.559Z,7.75
2019-02-03T17:24:54.626Z,8.43
2019-02-03T17:27:26.302Z,8.50
2019-02-03T17:29:56.696Z,8.55
2019-02-03T17:32:28.295Z,8.20
2019-02-03T17:34:59.418Z,7.90
2019-02-03T17:37:29.409Z,8.40
2019-02-03T17:40:00.052Z,8.00
2019-02-03T17:42:30.401Z,8.33
2019-02-03T17:45:00.427Z,8.90
2019-02-03T17:47:33.364Z,7.53
2019-02-03T17:50:07.664Z,8.80
2019-02-03T17:52:39.294Z,7.80
2019-02-03T17:55:15.193Z,8.27
2019-02-03T17:57:52.049Z,8.40
2019-02-03T18:00:52.895Z,7.93
2019-02-03T18:03:29.052Z,7.60
2019-02-03T18:06:09.829Z,7.70
2019-02-03T18:08:43.061Z,7.40
2019-02-03T18:11:17.758Z,7.13
2019-02-03T18:13:50.356Z,7.10
2019-02-03T18:16:21.467Z,7.43
2019-02-03T18:18:55.275Z,6.33
2019-02-03T18:21:28.771Z,6.73
2019-02-03T18:24:01.865Z,7.40
2019-02-03T18:26:34.243Z,6.00
2019-02-03T18:29:10.222Z,5.93
2019-02-03T18:31:40.678Z,6.20
2019-02-03T18:34:14.759Z,6.40
2019-02-03T18:36:44.960Z,7.40
2019-02-03T18:39:15.579Z,6.47
2019-02-03T18:41:46.071Z,6.40
2019-02-03T18:44:17.237Z,5.80
2019-02-03T18:46:48.081Z,7.10
2019-02-03T18:49:24.922Z,7.03
2019-02-03T18:52:13.824Z,5.80
2019-02-03T18:55:13.264Z,5.60
2019-02-03T18:57:48.690Z,6.10
2019-02-03T19:00:22.740Z,6.20
2019-02-03T19:02:58.272Z,6.17
2019-02-03T19:05:38.316Z,5.47
2019-02-03T19:08:28.953Z,5.93
2019-02-03T19:11:03.405Z,5.23
2019-02-03T19:13:43.393Z,5.60
2019-02-03T19:17:08.649Z,5.63
2019-02-03T19:19:44.479Z,5.10
2019-02-03T19:22:22.554Z,5.67
2019-02-03T19:24:57.194Z,5.33
2019-02-03T19:27:42.579Z,5.33
2019-02-03T19:30:19.987Z,5.50
2019-02-03T19:32:57.962Z,5.00
2019-02-03T19:35:33.141Z,5.10
2019-02-03T19:38:19.775Z,4.73
2019-02-03T19:40:56.857Z,4.70
2019-02-03T19:43:42.038Z,5.63
2019-02-03T19:46:15.190Z,4.97
2019-02-03T19:48:54.340Z,4.90
2019-02-03T19:51:26.366Z,4.73
2019-02-03T19:53:59.060Z,5.03
2019-02-03T19:56:29.263Z,4.80
2019-02-03T19:59:06.828Z,4.70
2019-02-03T20:01:57.918Z,4.70
2019-02-03T20:04:35.799Z,5.03
2019-02-03T20:07:09.435Z,4.93
2019-02-03T20:09:39.706Z,4.50
2019-02-03T20:12:10.994Z,5.33
2019-02-03T20:14:45.839Z,4.33
2019-02-03T20:17:19.275Z,4.30
2019-02-03T20:19:52.003Z,4.20
2019-02-03T20:22:23.548Z,3.93
2019-02-03T20:24:53.984Z,4.23
2019-02-03T20:27:24.695Z,4.10
2019-02-03T20:29:54.841Z,4.00
2019-02-03T20:32:26.100Z,3.43
2019-02-03T20:34:56.706Z,3.47
2019-02-03T20:37:27.012Z,3.47
2019-02-03T20:40:02.233Z,4.30
2019-02-03T20:42:30.127Z,4.03
2019-02-03T20:45:06.109Z,4.03
2019-02-03T20:47:39.392Z,3.90
2019-02-03T20:50:12.470Z,3.30
2019-02-03T20:52:46.931Z,3.43
2019-02-03T20:55:21.819Z,3.40
2019-02-03T20:57:52.891Z,3.47
2019-02-03T21:00:34.283Z,3.43
2019-02-03T21:03:10.821Z,3.50
2019-02-03T21:05:41.513Z,3.60
2019-02-03T21:08:16.920Z,3.60
2019-02-03T21:10:49.332Z,4.10
2019-02-03T21:13:23.626Z,3.65
2019-02-03T21:15:58.797Z,3.97
2019-02-03T21:18:29.562Z,3.75
2019-02-03T21:21:02.821Z,3.57
2019-02-03T21:23:33.113Z,3.52
2019-02-03T21:26:16.357Z,3.62
2019-02-03T21:28:43.004Z,3.37
2019-02-03T21:31:15.219Z,3.58
2019-02-03T21:33:47.978Z,3.42
2019-02-03T21:36:24.711Z,3.72
2019-02-03T21:38:57.402Z,3.95
2019-02-03T21:41:30.250Z,3.37
2019-02-03T21:44:01.660Z,3.70
2019-02-03T21:46:32.370Z,3.33
2019-02-03T21:49:03.900Z,4.10
2019-02-03T21:51:37.237Z,3.33
2019-02-03T21:54:07.984Z,3.50
2019-02-03T21:56:40.208Z,3.20
2019-02-03T21:59:11.358Z,3.10
2019-02-03T22:01:46.039Z,2.75
2019-02-03T22:04:20.093Z,2.80
2019-02-03T22:06:52.019Z,2.90
2019-02-03T22:09:23.591Z,2.95
2019-02-03T22:11:54.371Z,2.80
2019-02-03T22:14:24.658Z,2.77
2019-02-03T22:16:55.052Z,2.80
2019-02-03T22:19:26.470Z,2.58
2019-02-03T22:21:57.124Z,2.85
2019-02-03T22:24:27.659Z,2.72
2019-02-03T22:26:58.117Z,2.60
2019-02-03T22:29:28.512Z,2.80
2019-02-03T22:31:59.574Z,2.50
2019-02-03T22:34:30.218Z,2.40
2019-02-03T22:37:00.847Z,2.15
2019-02-03T22:39:32.567Z,2.77
2019-02-03T22:42:04.091Z,2.02
2019-02-03T22:44:35.051Z,2.50
2019-02-03T22:47:05.737Z,2.20
2019-02-03T22:49:36.808Z,2.40
2019-02-03T22:52:08.559Z,2.25
2019-02-03T22:54:38.918Z,2.17
2019-02-03T22:57:10.198Z,2.00
2019-02-03T22:59:41.578Z,2.00
2019-02-03T23:02:13.239Z,2.70
2019-02-03T23:04:44.249Z,2.53
2019-02-03T23:07:14.916Z,2.30
2019-02-03T23:09:46.424Z,1.95
2019-02-03T23:12:21.765Z,2.40
2019-02-03T23:14:52.522Z,2.20
2019-02-03T23:17:23.290Z,2.22
2019-02-03T23:19:56.900Z,1.92
2019-02-03T23:22:36.468Z,2.37
2019-02-03T23:25:07.688Z,2.55
2019-02-03T23:27:38.764Z,2.60
2019-02-03T23:30:13.886Z,2.72
2019-02-03T23:32:44.302Z,2.58
2019-02-03T23:35:19.244Z,3.30
2019-02-03T23:37:49.460Z,2.92
2019-02-03T23:40:20.854Z,3.42
2019-02-03T23:42:51.492Z,2.77
2019-02-03T23:45:21.940Z,2.70
2019-02-03T23:47:52.527Z,3.08
2019-02-03T23:50:23.231Z,2.50
2019-02-03T23:52:53.624Z,2.65
2019-02-03T23:55:24.060Z,3.20
2019-02-03T23:57:55.464Z,3.30
